Time;durP1;ratioP1;P1;durP2;ratioP2;P2;SDS_P1;SDS_P2;PMS_P1;PMS_P2;Temp;Humidity;BMP_temperature;BMP_pressure;BME280_temperature;BME280_humidity;BME280_pressure;Samples;Min_cycle;Max_cycle;Signal;HPM_P1;HPM_P2
2022/01/02 00:00:19;;;;;;;28.07;17.87;;;;;;;8.66;94.28;98867.46;1741915;82;21047;-58
2022/01/02 00:02:50;;;;;;;30.95;17.50;;;;;;;8.60;94.89;98869.79;1741664;81;20992;-57
2022/01/02 00:05:20;;;;;;;25.50;16.62;;;;;;;8.64;94.54;98868.78;1742009;81;20957;-58
2022/01/02 00:07:57;;;;;;;26.60;18.10;;;;;;;8.61;94.89;98861.15;1738044;81;21000;-56
2022/01/02 00:10:24;;;;;;;26.05;17.23;;;;;;;8.56;94.19;98866.49;1735672;82;21460;-56
2022/01/02 00:12:57;;;;;;;25.48;15.55;;;;;;;8.56;94.19;98866.49;1741510;81;20960;-56
2022/01/02 00:15:24;;;;;;;25.77;16.07;;;;;;;8.52;95.25;98856.69;1714737;81;21483;-56
2022/01/02 00:17:54;;;;;;;24.50;14.95;;;;;;;8.53;94.86;98861.56;1741786;81;21044;-57
2022/01/02 00:20:31;;;;;;;21.87;14.13;;;;;;;8.50;94.64;98860.72;1741596;82;20993;-56
2022/01/02 00:22:52;;;;;;;20.02;13.40;;;;;;;8.45;94.85;98838.48;1734285;82;21437;-56
2022/01/02 00:25:27;;;;;;;19.12;12.47;;;;;;;8.45;94.85;98838.48;1735365;82;21063;-56
2022/01/02 00:27:47;;;;;;;21.93;14.45;;;;;;;8.55;94.95;98847.30;1734889;82;20968;-56
2022/01/02 00:30:14;;;;;;;22.60;13.05;;;;;;;8.54;94.78;98845.10;1714580;82;21052;-56
2022/01/02 00:32:41;;;;;;;19.23;13.15;;;;;;;8.49;94.62;98835.59;1739906;81;21000;-56
2022/01/02 00:35:08;;;;;;;25.92;14.90;;;;;;;8.44;94.23;98831.44;1742019;82;21381;-56
2022/01/02 00:37:35;;;;;;;22.17;13.70;;;;;;;8.37;94.50;98837.53;1741684;81;21404;-56
2022/01/02 00:40:03;;;;;;;18.15;11.48;;;;;;;8.36;95.04;98835.37;1741910;82;21024;-56
2022/01/02 00:42:38;;;;;;;28.55;18.77;;;;;;;8.29;96.77;98834.70;1741728;81;38742;-56
2022/01/02 00:45:15;;;;;;;21.82;13.50;;;;;;;8.22;96.81;98831.88;1741278;82;20948;-56
2022/01/02 00:48:09;;;;;;;21.17;14.80;;;;;;;8.25;95.84;98830.02;1749621;80;21471;-56
2022/01/02 00:50:38;;;;;;;23.50;14.00;;;;;;;8.17;95.81;98830.71;1766203;80;21023;-58
2022/01/02 00:53:06;;;;;;;23.45;12.95;;;;;;;8.19;95.78;98833.16;1741718;81;21012;-58
2022/01/02 00:55:33;;;;;;;19.67;12.78;;;;;;;8.14;95.34;98838.49;1741998;82;21016;-58
2022/01/02 00:58:07;;;;;;;18.02;10.98;;;;;;;8.14;95.34;98838.49;1742097;81;21215;-56
2022/01/02 01:00:34;;;;;;;22.55;12.53;;;;;;;8.08;95.15;98840.80;1741715;81;21436;-56
2022/01/02 01:03:07;;;;;;;16.10;10.70;;;;;;;8.06;95.36;98837.54;1737228;82;21007;-56
2022/01/02 01:05:37;;;;;;;15.75;10.65;;;;;;;8.05;95.46;98838.07;1735530;82;21012;-56
2022/01/02 01:08:07;;;;;;;18.87;9.88;;;;;;;8.06;95.86;98836.19;1741974;81;21504;-56
2022/01/02 01:10:39;;;;;;;23.45;11.08;;;;;;;8.13;96.04;98834.97;1742059;81;21035;-56
2022/01/02 01:13:08;;;;;;;16.35;10.55;;;;;;;8.16;96.14;98839.05;1737695;81;21445;-56
2022/01/02 01:15:36;;;;;;;20.75;13.80;;;;;;;8.19;97.55;98832.63;1742095;81;20993;-56
2022/01/02 01:18:03;;;;;;;22.87;13.70;;;;;;;8.19;97.21;98829.11;1742079;81;20960;-56
2022/01/02 01:20:36;;;;;;;16.95;11.48;;;;;;;8.17;97.04;98829.89;1742133;81;20969;-56
2022/01/02 01:23:03;;;;;;;20.32;11.33;;;;;;;8.12;96.54;98825.78;1741712;82;20944;-56
2022/01/02 01:25:30;;;;;;;17.05;11.45;;;;;;;8.12;96.54;98825.78;1721186;81;21169;-56
2022/01/02 01:27:57;;;;;;;20.68;11.93;;;;;;;8.10;96.14;98818.42;1741947;81;21028;-56
2022/01/02 01:30:26;;;;;;;20.00;11.68;;;;;;;8.07;96.25;98817.58;1741977;81;21499;-56
2022/01/02 01:32:53;;;;;;;23.12;14.75;;;;;;;8.06;96.39;98804.61;1742003;81;21008;-56
2022/01/02 01:35:21;;;;;;;23.38;14.50;;;;;;;8.13;96.33;98803.11;1742134;81;21028;-56
2022/01/02 01:37:49;;;;;;;24.63;15.95;;;;;;;8.20;96.42;98804.59;1736124;82;21299;-56
2022/01/02 01:40:17;;;;;;;25.90;15.55;;;;;;;8.16;96.99;98799.38;1735630;82;20877;-56
2022/01/02 01:42:55;;;;;;;25.02;15.32;;;;;;;8.15;97.04;98796.40;1736433;82;20972;-56
2022/01/02 01:47:46;;;;;;;19.65;12.65;;;;;;;8.13;97.50;98786.38;1737370;81;21413;-57
2022/01/02 01:50:13;;;;;;;27.37;14.90;;;;;;;8.15;96.76;98785.59;1728383;82;22012;-57
2022/01/02 01:52:40;;;;;;;24.77;15.78;;;;;;;8.07;96.23;98788.70;1739084;82;21397;-56
2022/01/02 01:55:08;;;;;;;29.87;16.15;;;;;;;8.02;96.13;98787.78;1742064;82;21433;-56
2022/01/02 01:57:35;;;;;;;28.77;17.57;;;;;;;8.04;96.26;98787.03;1741993;81;20984;-56
2022/01/02 02:00:08;;;;;;;26.02;17.17;;;;;;;8.01;96.89;98781.58;1742165;82;20988;-56
2022/01/02 02:02:35;;;;;;;25.05;14.50;;;;;;;8.02;96.94;98771.06;1742051;81;21040;-58
2022/01/02 02:05:02;;;;;;;26.40;16.85;;;;;;;8.04;96.16;98770.84;1742178;82;20983;-58
2022/01/02 02:07:37;;;;;;;28.00;15.70;;;;;;;7.98;96.03;98770.46;1721279;80;20984;-58
2022/01/02 02:10:11;;;;;;;27.62;16.45;;;;;;;7.94;95.83;98767.41;1741158;82;20997;-58
2022/01/02 02:12:30;;;;;;;27.13;17.05;;;;;;;7.88;96.32;98767.88;1740476;81;21389;-57
2022/01/02 02:14:56;;;;;;;22.70;13.98;;;;;;;7.88;96.10;98776.50;1742025;80;21322;-58
2022/01/02 02:17:23;;;;;;;27.37;16.55;;;;;;;7.88;96.18;98771.11;1736258;81;20938;-58
2022/01/02 02:19:59;;;;;;;31.73;16.57;;;;;;;7.80;96.27;98764.23;1735691;82;20988;-57
2022/01/02 02:22:26;;;;;;;29.50;16.20;;;;;;;7.73;96.32;98758.70;1739426;81;21389;-58
2022/01/02 02:24:53;;;;;;;31.05;18.50;;;;;;;7.68;96.50;98748.63;1742097;82;20957;-58
2022/01/02 02:27:23;;;;;;;32.65;19.30;;;;;;;7.67;96.58;98758.31;1742057;81;21314;-58
2022/01/02 02:29:50;;;;;;;27.85;17.57;;;;;;;7.73;96.84;98764.09;1741773;82;21484;-58
2022/01/02 02:32:18;;;;;;;25.32;17.23;;;;;;;7.82;97.16;98762.09;1739086;82;20984;-58
2022/01/02 02:34:45;;;;;;;33.67;20.77;;;;;;;7.83;97.92;98765.61;1742143;82;21028;-58
2022/01/02 02:37:12;;;;;;;35.63;20.65;;;;;;;7.84;97.67;98764.02;1740994;81;20946;-57
2022/01/02 02:39:38;;;;;;;30.57;18.32;;;;;;;7.87;97.37;98769.48;1742080;82;21327;-57
2022/01/02 02:42:13;;;;;;;27.58;18.07;;;;;;;7.92;96.98;98770.36;1742376;81;20988;-58
2022/01/02 02:44:37;;;;;;;25.55;18.42;;;;;;;7.85;96.61;98762.95;1741414;82;21052;-58
2022/01/02 02:49:49;;;;;;;27.05;17.57;;;;;;;7.71;96.71;98755.44;1710808;83;21020;-58
2022/01/02 02:52:37;;;;;;;24.55;17.25;;;;;;;7.73;97.33;98747.91;1742146;81;21260;-58
2022/01/02 02:54:48;;;;;;;26.30;17.05;;;;;;;7.79;97.40;98737.50;1738894;82;20969;-58
2022/01/02 02:57:18;;;;;;;26.15;14.35;;;;;;;7.80;97.19;98736.43;1742204;81;21004;-58
2022/01/02 02:59:44;;;;;;;23.85;14.87;;;;;;;7.75;96.86;98722.31;1742156;82;21461;-57
2022/01/02 03:02:11;;;;;;;24.77;15.48;;;;;;;7.69;97.66;98717.06;1741946;81;20965;-58
2022/01/02 03:04:38;;;;;;;25.80;15.32;;;;;;;7.69;97.80;98717.06;1742149;82;21447;-58
2022/01/02 03:07:05;;;;;;;23.25;13.32;;;;;;;7.74;97.70;98718.52;1742136;81;20981;-58
2022/01/02 03:12:03;;;;;;;24.55;14.23;;;;;;;7.70;97.04;98712.80;1737193;82;20972;-58
2022/01/02 03:14:30;;;;;;;24.27;14.85;;;;;;;7.68;96.67;98713.55;1739543;82;21394;-58
2022/01/02 03:16:57;;;;;;;25.12;14.87;;;;;;;7.67;97.16;98716.50;1738192;81;21476;-58
2022/01/02 03:19:24;;;;;;;27.32;16.97;;;;;;;7.63;98.70;98717.00;1735648;82;20972;-57
2022/01/02 03:21:51;;;;;;;22.27;13.72;;;;;;;7.67;98.22;98713.27;1735760;82;21024;-57
2022/01/02 03:24:17;;;;;;;22.70;14.50;;;;;;;7.63;98.96;98710.78;1735494;82;21044;-57
2022/01/02 03:26:44;;;;;;;22.93;14.30;;;;;;;7.64;99.32;98717.28;1735675;82;21449;-57
2022/01/02 03:29:11;;;;;;;21.93;14.00;;;;;;;7.65;99.11;98714.05;1735386;82;21377;-57
2022/01/02 03:31:38;;;;;;;23.77;14.03;;;;;;;7.62;98.76;98697.83;1735613;82;20973;-58
2022/01/02 03:34:05;;;;;;;25.27;13.83;;;;;;;7.67;98.64;98696.27;1735581;82;21032;-57
2022/01/02 03:36:32;;;;;;;18.98;12.58;;;;;;;7.67;97.77;98693.57;1737931;81;21519;-58
2022/01/02 03:38:59;;;;;;;18.17;12.18;;;;;;;7.66;98.05;98696.80;1741873;82;21417;-57
2022/01/02 03:41:26;;;;;;;18.00;11.08;;;;;;;7.69;97.72;98690.94;1741775;81;21426;-57
2022/01/02 03:43:53;;;;;;;17.15;11.48;;;;;;;7.67;97.30;98689.52;1741919;82;21004;-58
2022/01/02 03:46:20;;;;;;;21.82;11.18;;;;;;;7.59;97.19;98687.52;1739737;81;21008;-57
2022/01/02 03:48:46;;;;;;;19.82;12.07;;;;;;;7.56;97.18;98682.62;1739832;82;20957;-57
2022/01/02 03:51:13;;;;;;;22.02;12.28;;;;;;;7.59;97.50;98678.07;1737927;80;20953;-57
2022/01/02 03:53:40;;;;;;;21.82;13.15;;;;;;;7.60;98.01;98685.62;1735878;82;21311;-57
2022/01/02 03:56:07;;;;;;;20.75;12.85;;;;;;;7.67;98.00;98676.85;1736949;81;20968;-57
2022/01/02 03:58:34;;;;;;;21.90;12.80;;;;;;;7.70;97.98;98671.52;1741943;81;20953;-57
2022/01/02 04:01:01;;;;;;;22.55;15.05;;;;;;;7.71;97.89;98665.06;1741718;81;21531;-57
2022/01/02 04:03:28;;;;;;;22.15;13.28;;;;;;;7.70;97.51;98672.88;1736441;82;21012;-57
2022/01/02 04:05:54;;;;;;;37.88;18.95;;;;;;;7.75;97.62;98671.58;1735426;82;21318;-58
2022/01/02 04:08:22;;;;;;;100.27;45.78;;;;;;;7.71;97.64;98669.11;1735568;82;21017;-57
2022/01/02 04:10:48;;;;;;;77.60;36.80;;;;;;;7.72;97.49;98669.39;1736234;82;21034;-57
2022/01/02 04:13:16;;;;;;;60.40;30.45;;;;;;;7.71;97.51;98668.57;1741964;81;20996;-58
2022/01/02 04:15:42;;;;;;;47.75;24.98;;;;;;;7.77;97.66;98669.45;1741777;81;21453;-58
2022/01/02 04:18:09;;;;;;;64.55;32.93;;;;;;;7.72;97.87;98660.77;1742184;80;21005;-57
2022/01/02 04:20:36;;;;;;;33.30;19.17;;;;;;;7.65;98.25;98660.10;1741735;81;21385;-58
2022/01/02 04:23:03;;;;;;;33.90;17.37;;;;;;;7.69;97.56;98659.07;1741015;82;21046;-58
2022/01/02 04:25:30;;;;;;;24.02;13.68;;;;;;;7.63;97.27;98663.59;1742058;82;20948;-57
2022/01/02 04:27:57;;;;;;;21.52;12.50;;;;;;;7.61;97.04;98649.00;1741952;81;21056;-57
2022/01/02 04:30:24;;;;;;;20.75;13.40;;;;;;;7.57;97.10;98649.19;1742177;81;21249;-57
2022/01/02 04:32:52;;;;;;;20.35;13.15;;;;;;;7.52;97.21;98654.52;1741832;81;21395;-57
2022/01/02 04:35:19;;;;;;;23.83;13.98;;;;;;;7.54;97.50;98658.31;1741944;81;26259;-58
2022/01/02 04:37:47;;;;;;;21.95;13.35;;;;;;;7.56;98.23;98661.04;1741915;81;21005;-57
2022/01/02 04:40:14;;;;;;;23.45;14.95;;;;;;;7.66;98.05;98662.27;1742032;81;20965;-57
2022/01/02 04:42:41;;;;;;;25.75;14.70;;;;;;;7.75;98.12;98655.40;1742035;81;21267;-58
2022/01/02 04:45:08;;;;;;;23.95;16.65;;;;;;;7.78;97.58;98657.63;1741744;82;21031;-57
2022/01/02 04:47:35;;;;;;;27.35;15.65;;;;;;;7.74;97.47;98655.94;1739235;81;20992;-57
2022/01/02 04:50:04;;;;;;;24.37;15.18;;;;;;;7.71;97.13;98640.25;1726981;82;21011;-57
2022/01/02 04:52:31;;;;;;;21.33;12.43;;;;;;;7.63;96.86;98645.52;1740570;80;21487;-58
2022/01/02 04:54:58;;;;;;;24.45;13.28;;;;;;;7.63;97.09;98646.87;1735406;82;21429;-57
2022/01/02 04:57:24;;;;;;;18.65;11.38;;;;;;;7.64;97.31;98650.38;1735642;82;21012;-58
2022/01/02 04:59:51;;;;;;;19.82;12.45;;;;;;;7.62;96.88;98649.81;1735604;82;21048;-58
2022/01/02 05:02:18;;;;;;;23.07;15.00;;;;;;;7.52;96.82;98638.84;1735669;82;20995;-57
2022/01/02 05:04:45;;;;;;;18.65;12.43;;;;;;;7.43;96.96;98634.38;1735401;82;21015;-57
2022/01/02 05:07:13;;;;;;;21.75;13.38;;;;;;;7.39;97.17;98635.13;1735681;82;22092;-58
2022/01/02 05:09:41;;;;;;;21.37;13.50;;;;;;;7.40;97.78;98640.27;1735603;82;21429;-57
2022/01/02 05:12:08;;;;;;;18.35;12.58;;;;;;;7.43;97.27;98632.22;1737678;82;21432;-57
2022/01/02 05:14:35;;;;;;;21.45;13.45;;;;;;;7.39;97.22;98622.45;1741901;81;21036;-58
2022/01/02 05:17:02;;;;;;;22.62;13.68;;;;;;;7.32;97.30;98613.70;1739219;81;21015;-57
2022/01/02 05:19:29;;;;;;;36.20;19.30;;;;;;;7.38;97.59;98623.53;1735781;82;22067;-57
2022/01/02 05:21:55;;;;;;;79.90;41.25;;;;;;;7.41;97.95;98618.98;1735611;82;21056;-57
2022/01/02 05:24:22;;;;;;;30.20;18.17;;;;;;;7.41;97.78;98616.81;1735614;82;21028;-57
2022/01/02 05:26:50;;;;;;;26.52;15.00;;;;;;;7.40;97.43;98607.09;1738682;81;21024;-58
2022/01/02 05:29:18;;;;;;;27.77;14.83;;;;;;;7.33;97.13;98594.59;1739113;81;21043;-58
2022/01/02 05:31:45;;;;;;;24.70;14.70;;;;;;;7.27;96.89;98588.84;1737582;81;21318;-57
2022/01/02 05:34:11;;;;;;;24.45;14.78;;;;;;;7.21;96.88;98588.47;1739140;82;20937;-57
2022/01/02 05:36:38;;;;;;;31.20;17.57;;;;;;;7.24;97.02;98583.11;1741862;81;20925;-58
2022/01/02 05:39:05;;;;;;;28.85;15.40;;;;;;;7.22;96.83;98578.50;1741914;82;21444;-57
2022/01/02 05:41:34;;;;;;;23.57;14.85;;;;;;;7.21;96.80;98574.17;1741068;81;20957;-58
2022/01/02 05:44:01;;;;;;;22.57;13.83;;;;;;;7.22;97.10;98571.23;1735878;82;21476;-58
2022/01/02 05:46:28;;;;;;;24.80;15.23;;;;;;;7.21;96.75;98562.05;1737623;81;21031;-57
2022/01/02 05:48:55;;;;;;;25.08;14.03;;;;;;;7.13;96.31;98557.88;1768437;80;21068;-57
2022/01/02 05:51:21;;;;;;;21.80;13.83;;;;;;;7.05;96.27;98554.23;1755602;80;20952;-57
2022/01/02 05:53:48;;;;;;;22.15;13.30;;;;;;;6.94;95.85;98557.29;1742233;82;20973;-58
2022/01/02 05:56:15;;;;;;;23.02;13.13;;;;;;;6.82;95.61;98545.74;1742017;81;22085;-58
2022/01/02 05:58:42;;;;;;;23.35;13.32;;;;;;;6.74;95.61;98550.17;1742052;81;21378;-58
2022/01/02 06:01:09;;;;;;;23.32;14.45;;;;;;;6.63;95.52;98540.28;1741920;81;20945;-58
2022/01/02 06:03:36;;;;;;;26.30;15.15;;;;;;;6.52;95.66;98535.77;1742129;81;20964;-57
2022/01/02 06:06:04;;;;;;;25.08;15.18;;;;;;;6.45;96.09;98527.84;1739903;82;21016;-57
2022/01/02 06:08:30;;;;;;;30.20;14.85;;;;;;;6.44;96.46;98520.82;1742163;82;21395;-58
2022/01/02 06:10:57;;;;;;;19.77;13.05;;;;;;;6.37;95.79;98514.23;1740842;81;21440;-57
2022/01/02 06:13:24;;;;;;;24.67;15.45;;;;;;;6.32;95.98;98513.30;1735779;82;21000;-57
2022/01/02 06:15:51;;;;;;;25.37;15.85;;;;;;;6.38;96.44;98499.70;1735521;82;21052;-57
2022/01/02 06:18:18;;;;;;;31.57;18.52;;;;;;;6.45;96.65;98502.27;1735741;82;21004;-57
2022/01/02 06:20:45;;;;;;;34.48;20.12;;;;;;;6.51;96.60;98506.69;1735550;82;21421;-58
2022/01/02 06:23:12;;;;;;;33.08;18.57;;;;;;;6.44;95.75;98496.06;1740745;82;20914;-57
2022/01/02 06:25:39;;;;;;;42.10;24.40;;;;;;;6.28;95.45;98495.48;1741827;81;21409;-57
2022/01/02 06:28:06;;;;;;;39.60;21.90;;;;;;;6.17;95.38;98489.63;1742009;81;20988;-58
2022/01/02 06:30:32;;;;;;;37.70;21.12;;;;;;;6.12;95.44;98484.13;1741932;81;21083;-57
2022/01/02 06:32:59;;;;;;;31.73;19.67;;;;;;;6.06;95.78;98483.73;1737645;81;21434;-57
2022/01/02 06:35:29;;;;;;;44.40;24.77;;;;;;;5.99;95.80;98479.86;1735412;82;21461;-57
2022/01/02 06:37:56;;;;;;;28.60;19.10;;;;;;;5.99;95.89;98485.24;1741992;81;21028;-58
2022/01/02 06:40:23;;;;;;;27.02;18.00;;;;;;;5.94;95.93;98479.22;1741484;81;20944;-57
2022/01/02 06:42:50;;;;;;;24.55;16.07;;;;;;;5.81;95.78;98474.09;1740664;82;20982;-58
2022/01/02 06:45:17;;;;;;;29.67;19.15;;;;;;;5.73;96.05;98479.03;1741978;82;22007;-57
2022/01/02 06:47:44;;;;;;;34.10;20.00;;;;;;;5.60;96.39;98475.52;1749593;80;21434;-57
2022/01/02 06:50:12;;;;;;;38.90;23.95;;;;;;;5.55;96.33;98471.90;1773267;80;21485;-57
2022/01/02 06:52:39;;;;;;;45.38;27.32;;;;;;;5.47;95.64;98467.73;1742069;81;21365;-57
2022/01/02 06:55:07;;;;;;;55.33;35.10;;;;;;;5.37;95.62;98464.80;1742189;81;21043;-57
2022/01/02 06:57:33;;;;;;;40.88;26.48;;;;;;;5.32;95.94;98466.86;1735875;82;21394;-58
2022/01/02 07:00:01;;;;;;;48.33;31.82;;;;;;;5.36;96.23;98458.60;1735497;82;21004;-57
2022/01/02 07:02:28;;;;;;;38.95;25.88;;;;;;;5.35;96.30;98457.50;1735828;82;21059;-57
2022/01/02 07:04:54;;;;;;;72.90;43.45;;;;;;;5.34;96.55;98449.97;1735762;82;21056;-57
2022/01/02 07:07:21;;;;;;;78.92;44.77;;;;;;;5.32;97.17;98452.08;1735676;82;20981;-57
2022/01/02 07:09:48;;;;;;;75.52;45.75;;;;;;;5.31;97.22;98451.79;1735558;81;21988;-58
2022/01/02 07:12:15;;;;;;;120.22;56.55;;;;;;;5.29;96.99;98445.81;1735633;82;21499;-57
2022/01/02 07:14:42;;;;;;;39.48;23.98;;;;;;;5.25;97.14;98435.25;1735590;82;20930;-57
2022/01/02 07:17:09;;;;;;;30.92;21.05;;;;;;;5.30;97.10;98433.22;1740758;81;21020;-58
2022/01/02 07:19:36;;;;;;;34.23;24.40;;;;;;;5.38;97.30;98427.45;1742033;82;21032;-57
2022/01/02 07:22:05;;;;;;;30.68;19.77;;;;;;;5.41;96.95;98414.91;1742094;81;21311;-58
2022/01/02 07:24:33;;;;;;;30.25;19.87;;;;;;;5.43;96.96;98405.27;1742084;81;21008;-57
2022/01/02 07:27:00;;;;;;;33.53;22.52;;;;;;;5.53;97.07;98410.31;1739400;81;21016;-57
2022/01/02 07:29:27;;;;;;;37.13;23.83;;;;;;;5.57;96.93;98402.08;1735862;82;21008;-57
2022/01/02 07:31:54;;;;;;;38.58;24.60;;;;;;;5.61;96.44;98399.19;1738236;81;20972;-57
2022/01/02 07:34:21;;;;;;;37.95;24.82;;;;;;;5.59;96.42;98391.89;1735578;82;22064;-57
2022/01/02 07:36:48;;;;;;;32.05;22.17;;;;;;;5.66;96.82;98396.61;1738901;81;21442;-58
2022/01/02 07:39:15;;;;;;;33.65;20.55;;;;;;;5.73;96.94;98391.11;1742107;82;21031;-57
2022/01/02 07:41:42;;;;;;;33.65;22.02;;;;;;;5.83;96.77;98389.95;1740292;81;20973;-57
2022/01/02 07:44:09;;;;;;;42.38;23.18;;;;;;;5.91;96.76;98381.53;1735949;82;20972;-57
2022/01/02 07:46:35;;;;;;;35.80;22.00;;;;;;;6.00;96.69;98372.55;1735602;82;21294;-58
2022/01/02 07:49:02;;;;;;;35.88;22.30;;;;;;;6.11;96.65;98377.04;1760627;78;21454;-58
2022/01/02 07:51:29;;;;;;;30.43;19.92;;;;;;;6.16;96.73;98374.98;1750144;81;21433;-58
2022/01/02 07:53:56;;;;;;;29.87;21.27;;;;;;;6.27;96.60;98367.89;1742065;81;21409;-57
2022/01/02 07:56:24;;;;;;;33.92;21.62;;;;;;;6.31;96.26;98361.77;1741820;81;20957;-57
2022/01/02 07:58:51;;;;;;;50.40;32.73;;;;;;;6.34;96.01;98353.75;1742149;82;21420;-57
2022/01/02 08:01:19;;;;;;;42.15;29.65;;;;;;;6.32;95.59;98347.24;1741607;81;21023;-57
2022/01/02 08:03:46;;;;;;;41.10;24.57;;;;;;;6.47;95.62;98359.61;1742086;82;20933;-57
2022/01/02 08:06:13;;;;;;;55.70;35.20;;;;;;;6.47;95.62;98359.61;1740143;82;21432;-58
2022/01/02 08:08:40;;;;;;;38.42;23.87;;;;;;;6.54;95.61;98342.48;1741845;82;21040;-57
2022/01/02 08:11:07;;;;;;;26.60;15.25;;;;;;;6.51;95.48;98334.38;1741782;81;22092;-58
2022/01/02 08:13:34;;;;;;;28.17;20.05;;;;;;;6.58;95.29;98336.38;1742187;82;21334;-57
2022/01/02 08:16:01;;;;;;;31.60;21.05;;;;;;;6.57;95.19;98337.41;1741759;81;21027;-57
2022/01/02 08:18:28;;;;;;;35.35;23.62;;;;;;;6.64;95.53;98327.83;1742275;81;20999;-57
2022/01/02 08:20:57;;;;;;;44.45;30.92;;;;;;;6.73;95.39;98319.61;1741888;81;20985;-57
2022/01/02 08:23:24;;;;;;;43.13;29.10;;;;;;;6.78;95.10;98314.31;1742194;81;21297;-57
2022/01/02 08:25:51;;;;;;;37.60;25.43;;;;;;;6.78;94.62;98317.00;1741659;81;21024;-58
2022/01/02 08:28:19;;;;;;;39.80;25.08;;;;;;;6.79;94.74;98320.79;1735964;82;20980;-57
2022/01/02 08:30:47;;;;;;;41.33;25.83;;;;;;;6.77;94.74;98314.84;1738661;81;21047;-57
2022/01/02 08:33:14;;;;;;;48.35;34.13;;;;;;;6.68;95.10;98304.74;1742235;81;21012;-57
2022/01/02 08:35:43;;;;;;;45.65;30.02;;;;;;;6.91;95.20;98301.00;1741758;81;21334;-57
2022/01/02 08:38:11;;;;;;;26.23;16.27;;;;;;;6.98;95.09;98292.21;1742126;81;20948;-57
2022/01/02 08:40:38;;;;;;;27.73;16.70;;;;;;;7.09;94.79;98283.19;1741616;81;21048;-58
2022/01/02 08:43:06;;;;;;;18.90;12.23;;;;;;;7.25;94.80;98290.39;1735742;82;20988;-58
2022/01/02 08:45:35;;;;;;;15.83;10.75;;;;;;;7.39;94.60;98280.58;1735535;82;20992;-58
2022/01/02 08:48:02;;;;;;;13.53;9.67;;;;;;;7.30;93.24;98277.52;1738260;82;21390;-58
2022/01/02 08:50:29;;;;;;;16.93;10.63;;;;;;;7.45;93.35;98272.84;1737982;81;21387;-57
2022/01/02 08:52:55;;;;;;;23.77;14.50;;;;;;;7.61;93.86;98267.89;1742004;81;20988;-58
2022/01/02 08:55:22;;;;;;;13.72;8.50;;;;;;;7.73;93.64;98272.59;1742009;81;20988;-57
2022/01/02 08:57:49;;;;;;;8.98;6.83;;;;;;;7.77;92.70;98266.13;1742104;81;20937;-58
2022/01/02 09:00:16;;;;;;;19.32;10.30;;;;;;;7.87;92.42;98268.95;1742085;81;21356;-58
2022/01/02 09:02:43;;;;;;;13.88;10.95;;;;;;;7.97;92.07;98258.24;1741768;81;21322;-57
2022/01/02 09:05:10;;;;;;;14.38;10.63;;;;;;;8.10;92.43;98247.54;1742038;82;20946;-57
2022/01/02 09:07:37;;;;;;;18.82;12.23;;;;;;;8.23;92.98;98251.16;1741973;81;21000;-58
2022/01/02 09:10:05;;;;;;;20.20;14.70;;;;;;;8.32;92.79;98252.84;1741994;82;20972;-58
2022/01/02 09:12:32;;;;;;;22.10;14.07;;;;;;;8.42;93.28;98255.64;1741738;81;21332;-58
2022/01/02 09:14:59;;;;;;;28.05;17.40;;;;;;;8.54;93.28;98246.80;1741839;79;20984;-57
2022/01/02 09:17:26;;;;;;;10.65;7.33;;;;;;;8.60;90.93;98239.55;1738176;81;21031;-58
2022/01/02 09:19:52;;;;;;;16.77;10.78;;;;;;;8.66;90.62;98226.36;1737697;81;21009;-58
2022/01/02 09:22:20;;;;;;;17.90;9.88;;;;;;;8.76;91.47;98225.05;1742115;81;20972;-58
2022/01/02 09:24:46;;;;;;;14.28;8.43;;;;;;;8.98;91.01;98198.67;1742012;81;22058;-58
2022/01/02 09:27:13;;;;;;;12.18;7.60;;;;;;;8.98;91.01;98198.67;1741822;81;20954;-57
2022/01/02 09:29:40;;;;;;;10.40;6.70;;;;;;;9.17;88.74;98203.06;1742219;82;21020;-58
2022/01/02 09:32:07;;;;;;;9.63;5.75;;;;;;;9.25;89.12;98208.49;1742096;81;20956;-58
2022/01/02 09:34:34;;;;;;;17.12;11.93;;;;;;;9.42;89.11;98202.31;1741955;82;21501;-57
2022/01/02 09:37:01;;;;;;;14.90;8.60;;;;;;;9.56;88.35;98193.93;1742048;81;21416;-58
2022/01/02 09:39:28;;;;;;;11.05;6.90;;;;;;;9.71;89.11;98197.74;1742141;82;20972;-58
2022/01/02 09:41:55;;;;;;;11.97;7.28;;;;;;;9.85;89.16;98196.95;1742272;81;21032;-58
2022/01/02 09:44:21;;;;;;;7.67;5.53;;;;;;;9.94;87.64;98197.22;1742279;82;20982;-58
2022/01/02 09:46:51;;;;;;;9.78;4.75;;;;;;;10.04;88.74;98192.34;1741184;81;21036;-58
2022/01/02 09:49:20;;;;;;;11.90;10.08;;;;;;;10.10;87.60;98186.66;1774412;80;21030;-58
2022/01/02 09:51:47;;;;;;;14.00;8.65;;;;;;;10.19;88.06;98182.85;1749242;80;20993;-58
2022/01/02 09:54:14;;;;;;;30.27;18.30;;;;;;;10.27;88.15;98179.63;1742303;82;21012;-58
2022/01/02 09:56:41;;;;;;;12.78;5.85;;;;;;;10.24;84.83;98168.51;1741917;81;21055;-58
2022/01/02 09:59:08;;;;;;;26.90;15.00;;;;;;;10.17;80.18;98166.08;1742081;82;21508;-58
2022/01/02 10:01:36;;;;;;;28.52;16.30;;;;;;;10.27;83.17;98157.95;1741765;81;21299;-57
2022/01/02 10:04:03;;;;;;;18.75;10.65;;;;;;;10.32;84.39;98155.22;1742260;81;20949;-57
2022/01/02 10:06:48;;;;;;;18.52;11.08;;;;;;;10.36;85.17;98156.31;1741844;81;20961;-58
2022/01/02 10:09:34;;;;;;;12.15;6.70;;;;;;;10.43;85.67;98160.09;1742077;82;20962;-57
2022/01/02 10:12:25;;;;;;;17.52;10.58;;;;;;;10.37;81.28;98171.47;1737492;82;21035;-58
2022/01/02 10:15:19;;;;;;;43.68;22.52;;;;;;;10.29;80.24;98166.61;1735856;82;21395;-58
2022/01/02 10:18:07;;;;;;;18.70;11.50;;;;;;;10.31;79.25;98170.39;1735607;82;21019;-58
2022/01/02 10:20:41;;;;;;;11.28;5.97;;;;;;;10.45;82.11;98171.45;1739868;82;21008;-57
2022/01/02 10:23:20;;;;;;;10.65;5.25;;;;;;;10.54;81.37;98171.16;1742060;81;20948;-58
2022/01/02 10:26:00;;;;;;;;;;;;;;;10.64;81.31;98160.28;1744518;81;21012;-58
2022/01/02 10:28:39;;;;;;;19.30;10.75;;;;;;;10.57;76.77;98158.95;1742211;81;21318;-57
2022/01/02 10:31:14;;;;;;;20.52;10.05;;;;;;;10.73;80.84;98153.20;1740221;81;21071;-57
2022/01/02 10:33:52;;;;;;;35.00;19.55;;;;;;;10.86;80.35;98144.22;1735543;82;20990;-57
2022/01/02 10:36:34;;;;;;;40.35;20.80;;;;;;;10.92;79.96;98145.80;1735471;82;21425;-57
2022/01/02 10:39:10;;;;;;;14.58;9.43;;;;;;;11.05;80.88;98144.39;1736001;82;21035;-57
2022/01/02 10:41:43;;;;;;;17.77;10.95;;;;;;;11.14;80.24;98141.35;1739040;81;21259;-57
2022/01/02 10:44:30;;;;;;;57.50;30.50;;;;;;;11.24;80.49;98143.45;1742010;82;20944;-57
2022/01/02 10:47:20;;;;;;;23.10;13.43;;;;;;;11.30;80.19;98130.67;1741472;81;20954;-57
2022/01/02 10:50:09;;;;;;;15.08;8.50;;;;;;;11.36;80.07;98121.39;1742043;81;21441;-57
2022/01/02 10:52:40;;;;;;;7.78;4.97;;;;;;;11.41;78.21;98121.91;1735556;82;20964;-57
2022/01/02 10:55:27;;;;;;;8.88;5.08;;;;;;;11.43;78.42;98114.30;1734920;82;21279;-57
2022/01/02 10:57:55;;;;;;;9.80;7.97;;;;;;;11.51;79.52;98115.86;1737723;81;20972;-57
2022/01/02 11:00:25;;;;;;;9.60;5.90;;;;;;;11.65;80.09;98116.58;1735846;82;21444;-57
2022/01/02 11:02:52;;;;;;;12.15;9.18;;;;;;;11.65;77.21;98116.58;1738436;82;20980;-57
2022/01/02 11:05:21;;;;;;;10.90;7.33;;;;;;;11.67;78.20;98121.98;1742030;81;20996;-57
2022/01/02 11:07:50;;;;;;;13.15;9.33;;;;;;;11.75;79.36;98117.30;1742013;81;21403;-57
2022/01/02 11:10:20;;;;;;;12.47;8.80;;;;;;;11.80;78.15;98125.99;1741994;81;21480;-57
2022/01/02 11:12:48;;;;;;;8.80;4.58;;;;;;;11.64;76.46;98111.70;1742056;81;21039;-57
2022/01/02 11:15:20;;;;;;;9.10;4.62;;;;;;;11.56;76.79;98114.48;1742378;81;20925;-57
2022/01/02 11:17:47;;;;;;;12.70;6.50;;;;;;;11.54;77.64;98113.14;1737073;81;21420;-57
2022/01/02 11:20:17;;;;;;;11.93;6.85;;;;;;;11.51;78.17;98102.29;1735589;82;21392;-57
2022/01/02 11:23:07;;;;;;;21.45;11.90;;;;;;;11.56;78.85;98095.48;1736749;82;21009;-57
2022/01/02 11:26:05;;;;;;;21.90;14.35;;;;;;;11.62;78.61;98086.73;1735883;82;21036;-57
2022/01/02 11:28:47;;;;;;;10.78;7.58;;;;;;;11.55;75.89;98080.84;1735770;82;21020;-58
2022/01/02 11:31:33;;;;;;;16.37;10.25;;;;;;;11.62;78.05;98071.80;1735466;82;20976;-57
2022/01/02 11:34:00;;;;;;;14.53;9.23;;;;;;;11.59;75.79;98077.81;1735773;82;21306;-57
2022/01/02 11:36:35;;;;;;;9.93;5.25;;;;;;;11.59;75.22;98067.76;1714410;82;21012;-57
2022/01/02 11:39:08;;;;;;;14.47;7.37;;;;;;;11.48;71.52;98052.67;1735856;82;21008;-57
2022/01/02 11:41:44;;;;;;;10.38;4.67;;;;;;;11.67;72.53;98063.63;1738110;81;21019;-57